Time;durP1;ratioP1;P1;durP2;ratioP2;P2;SDS_P1;SDS_P2;PMS_P1;PMS_P2;Temp;Humidity;BMP_temperature;BMP_pressure;BME280_temperature;BME280_humidity;BME280_pressure;Samples;Min_cycle;Max_cycle;Signal;HPM_P1;HPM_P2
2022/10/10 00:01:54;;;;;;;;;;;28.30;95.50;;;;;;5091801;27;19913;-47
2022/10/10 00:04:20;;;;;;;;;;;28.30;95.50;;;;;;5060309;27;20236;-47
2022/10/10 00:06:46;;;;;;;;;;;28.30;95.40;;;;;;5076638;27;25099;-50
2022/10/10 00:09:13;;;;;;;;;;;28.30;95.40;;;;;;5066900;27;24066;-50
2022/10/10 00:11:39;;;;;;;;;;;28.20;95.40;;;;;;5058493;27;25062;-50
2022/10/10 00:14:05;;;;;;;;;;;28.20;95.40;;;;;;5121106;27;20012;-44
2022/10/10 00:16:31;;;;;;;;;;;28.20;95.30;;;;;;5156821;27;20159;-49
2022/10/10 00:18:58;;;;;;;;;;;28.20;95.20;;;;;;5149028;27;20206;-49
2022/10/10 00:21:24;;;;;;;;;;;28.20;95.10;;;;;;5065508;27;19950;-45
2022/10/10 00:23:50;;;;;;;;;;;28.20;95.10;;;;;;5060284;28;24068;-54
2022/10/10 00:26:16;;;;;;;;;;;28.20;95.00;;;;;;5042270;28;24077;-51
2022/10/10 00:28:42;;;;;;;;;;;28.20;95.00;;;;;;5060436;28;19905;-50
2022/10/10 00:31:08;;;;;;;;;;;28.20;94.90;;;;;;5059970;27;19920;-46
2022/10/10 00:33:35;;;;;;;;;;;28.20;94.90;;;;;;5060007;28;24073;-45
2022/10/10 00:36:01;;;;;;;;;;;28.20;94.80;;;;;;5040588;28;19948;-48
2022/10/10 00:38:27;;;;;;;;;;;28.20;94.80;;;;;;5058049;28;20144;-48
2022/10/10 00:40:55;;;;;;;;;;;28.20;94.80;;;;;;5056295;28;24094;-45
2022/10/10 00:43:23;;;;;;;;;;;28.20;94.80;;;;;;5060227;28;19908;-53
2022/10/10 00:45:49;;;;;;;;;;;28.20;94.80;;;;;;5061096;28;20105;-51
2022/10/10 00:48:17;;;;;;;;;;;28.20;94.70;;;;;;5061815;28;24123;-55
2022/10/10 00:50:46;;;;;;;;;;;28.20;94.80;;;;;;5063018;28;20193;-47
2022/10/10 00:53:14;;;;;;;;;;;28.20;94.70;;;;;;5063820;28;20044;-49
2022/10/10 00:55:40;;;;;;;;;;;28.20;94.70;;;;;;5062701;28;19904;-50
2022/10/10 00:58:07;;;;;;;;;;;28.20;94.60;;;;;;5062822;28;24082;-50
2022/10/10 01:00:34;;;;;;;;;;;28.20;94.60;;;;;;5063012;28;24111;-50
2022/10/10 01:03:00;;;;;;;;;;;28.10;94.50;;;;;;5062901;28;19909;-45
2022/10/10 01:05:26;;;;;;;;;;;28.10;94.50;;;;;;5069100;27;19912;-47
2022/10/10 01:07:52;;;;;;;;;;;28.10;94.50;;;;;;5043016;28;20070;-44
2022/10/10 01:10:21;;;;;;;;;;;28.10;94.40;;;;;;5077496;27;20381;-42
2022/10/10 01:12:50;;;;;;;;;;;28.10;94.40;;;;;;5166680;27;19903;-43
2022/10/10 01:15:20;;;;;;;;;;;28.00;94.30;;;;;;5114934;27;19951;-45
2022/10/10 01:17:53;;;;;;;;;;;28.00;94.20;;;;;;5168250;27;20187;-46
2022/10/10 01:20:19;;;;;;;;;;;28.00;94.20;;;;;;5127331;27;19938;-44
2022/10/10 01:23:04;;;;;;;;;;;28.00;94.20;;;;;;5108433;27;20214;-42
2022/10/10 01:25:36;;;;;;;;;;;28.00;94.20;;;;;;5080763;27;20041;-42
2022/10/10 01:28:11;;;;;;;;;;;27.90;94.20;;;;;;5066220;27;20054;-46
2022/10/10 01:30:39;;;;;;;;;;;27.90;94.20;;;;;;5079963;27;19920;-48
2022/10/10 01:33:13;;;;;;;;;;;27.80;94.00;;;;;;5052571;28;24089;-50
2022/10/10 01:35:48;;;;;;;;;;;27.80;94.10;;;;;;5042434;28;19905;-42
2022/10/10 01:38:18;;;;;;;;;;;27.80;94.00;;;;;;5143611;27;20095;-45
2022/10/10 01:40:50;;;;;;;;;;;27.80;94.00;;;;;;5090781;27;19941;-44
2022/10/10 01:43:16;;;;;;;;;;;27.80;94.00;;;;;;5052458;27;19975;-43
2022/10/10 01:45:43;;;;;;;;;;;27.80;94.00;;;;;;5058290;28;19908;-41
2022/10/10 01:48:09;;;;;;;;;;;27.70;93.90;;;;;;5127659;27;20305;-49
2022/10/10 01:50:43;;;;;;;;;;;27.70;93.80;;;;;;5167598;27;20269;-46
2022/10/10 01:53:17;;;;;;;;;;;27.70;93.80;;;;;;5167523;27;19911;-42
2022/10/10 01:55:48;;;;;;;;;;;27.70;93.70;;;;;;5128509;27;19964;-42
2022/10/10 01:58:40;;;;;;;;;;;27.70;93.80;;;;;;5042568;28;20105;-45
2022/10/10 02:01:35;;;;;;;;;;;27.70;93.70;;;;;;5067175;27;20117;-42
2022/10/10 02:04:06;;;;;;;;;;;27.60;93.60;;;;;;5080608;28;20132;-42
2022/10/10 02:06:41;;;;;;;;;;;27.60;93.60;;;;;;5059826;27;20048;-48
2022/10/10 02:09:10;;;;;;;;;;;27.60;93.70;;;;;;5078029;27;19916;-42
2022/10/10 02:11:38;;;;;;;;;;;27.60;93.50;;;;;;5061056;28;19908;-46
2022/10/10 02:14:13;;;;;;;;;;;27.60;93.60;;;;;;5061122;28;19948;-44
2022/10/10 02:16:42;;;;;;;;;;;27.60;93.60;;;;;;5042698;27;19901;-50
2022/10/10 02:19:09;;;;;;;;;;;27.70;93.60;;;;;;5041977;28;24057;-46
2022/10/10 02:21:37;;;;;;;;;;;27.70;93.60;;;;;;5048440;28;19904;-44
2022/10/10 02:24:05;;;;;;;;;;;27.70;93.50;;;;;;5048100;28;19944;-48
2022/10/10 02:26:32;;;;;;;;;;;27.70;93.50;;;;;;5041952;28;20128;-44
2022/10/10 02:29:01;;;;;;;;;;;27.70;93.60;;;;;;5056972;27;19933;-48
2022/10/10 02:31:47;;;;;;;;;;;27.70;93.40;;;;;;5041699;28;20143;-50
2022/10/10 02:34:16;;;;;;;;;;;27.70;93.30;;;;;;5048674;28;20082;-43
2022/10/10 02:36:44;;;;;;;;;;;27.80;93.40;;;;;;5041582;28;20057;-42
2022/10/10 02:39:12;;;;;;;;;;;27.80;93.30;;;;;;5042240;28;19913;-42
2022/10/10 02:41:40;;;;;;;;;;;27.80;93.20;;;;;;5116339;27;20044;-40
2022/10/10 02:44:06;;;;;;;;;;;27.80;93.10;;;;;;5076287;27;20051;-45
2022/10/10 02:46:33;;;;;;;;;;;27.80;93.10;;;;;;5081733;27;19909;-42
2022/10/10 02:49:01;;;;;;;;;;;27.80;93.10;;;;;;5148514;27;20025;-43
2022/10/10 02:51:28;;;;;;;;;;;27.80;93.10;;;;;;5077573;27;20185;-43
2022/10/10 02:53:54;;;;;;;;;;;27.80;93.00;;;;;;5054813;28;19956;-43
2022/10/10 02:56:20;;;;;;;;;;;27.80;93.20;;;;;;5054192;28;19905;-43
2022/10/10 02:58:46;;;;;;;;;;;27.80;93.00;;;;;;5048947;27;20070;-44
2022/10/10 03:01:12;;;;;;;;;;;27.80;93.00;;;;;;5112353;27;20100;-48
2022/10/10 03:03:39;;;;;;;;;;;27.80;93.00;;;;;;5125756;27;20199;-53
2022/10/10 03:06:05;;;;;;;;;;;27.80;93.00;;;;;;5165586;27;19926;-44
2022/10/10 03:08:31;;;;;;;;;;;27.80;92.90;;;;;;5166363;27;20065;-45
2022/10/10 03:10:58;;;;;;;;;;;27.80;92.90;;;;;;5166101;27;20180;-46
2022/10/10 03:13:25;;;;;;;;;;;27.80;92.80;;;;;;5166313;27;20025;-41
2022/10/10 03:15:51;;;;;;;;;;;27.80;92.90;;;;;;5165755;27;19903;-47
2022/10/10 03:18:18;;;;;;;;;;;27.80;92.80;;;;;;5166049;27;20117;-48
2022/10/10 03:20:45;;;;;;;;;;;27.80;92.80;;;;;;5165665;27;19982;-49
2022/10/10 03:23:12;;;;;;;;;;;27.80;92.70;;;;;;5165803;27;20262;-43
2022/10/10 03:25:41;;;;;;;;;;;27.80;92.70;;;;;;5166047;27;24091;-44
2022/10/10 03:28:08;;;;;;;;;;;27.80;92.70;;;;;;5165717;27;20032;-43
2022/10/10 03:30:35;;;;;;;;;;;27.70;92.70;;;;;;5165649;27;19961;-43
2022/10/10 03:33:01;;;;;;;;;;;27.70;92.70;;;;;;5165980;27;19907;-46
2022/10/10 03:35:27;;;;;;;;;;;27.70;92.80;;;;;;5147160;27;19907;-43
2022/10/10 03:37:53;;;;;;;;;;;27.70;92.70;;;;;;5165414;27;24071;-45
2022/10/10 03:40:19;;;;;;;;;;;27.70;92.70;;;;;;5165633;27;19907;-45
2022/10/10 03:42:46;;;;;;;;;;;27.70;92.70;;;;;;5165724;27;20094;-45
2022/10/10 03:45:12;;;;;;;;;;;27.70;92.70;;;;;;5165060;27;19934;-47
2022/10/10 03:47:38;;;;;;;;;;;27.70;92.70;;;;;;5165289;27;19903;-44
2022/10/10 03:50:04;;;;;;;;;;;27.70;92.70;;;;;;5165184;27;24072;-45
2022/10/10 03:52:30;;;;;;;;;;;27.70;92.70;;;;;;5052031;28;20220;-44
2022/10/10 03:54:57;;;;;;;;;;;27.70;92.70;;;;;;5041072;28;20200;-44
2022/10/10 03:57:23;;;;;;;;;;;27.70;92.70;;;;;;5040801;28;20409;-42
2022/10/10 03:59:49;;;;;;;;;;;27.70;92.70;;;;;;5040905;28;20111;-42
2022/10/10 04:02:18;;;;;;;;;;;27.70;92.70;;;;;;5040598;28;19901;-42
2022/10/10 04:04:44;;;;;;;;;;;27.70;92.60;;;;;;5043253;28;24091;-42
2022/10/10 04:07:10;;;;;;;;;;;27.70;92.60;;;;;;5060335;28;19922;-41
2022/10/10 04:09:37;;;;;;;;;;;27.60;92.60;;;;;;5060739;28;19916;-41
2022/10/10 04:12:03;;;;;;;;;;;27.60;92.60;;;;;;5059877;28;24066;-44
2022/10/10 04:14:29;;;;;;;;;;;27.60;92.70;;;;;;5052693;28;20190;-50
2022/10/10 04:16:55;;;;;;;;;;;27.60;92.70;;;;;;5040992;28;19980;-47
2022/10/10 04:19:22;;;;;;;;;;;27.60;92.80;;;;;;5026195;28;20042;-52
2022/10/10 04:21:48;;;;;;;;;;;27.60;92.80;;;;;;5043214;28;19980;-48
2022/10/10 04:24:14;;;;;;;;;;;27.60;92.90;;;;;;5043924;28;19924;-44
2022/10/10 04:26:40;;;;;;;;;;;27.50;92.90;;;;;;5050613;28;20088;-47
2022/10/10 04:29:07;;;;;;;;;;;27.50;93.00;;;;;;5062131;28;20104;-44
2022/10/10 04:31:33;;;;;;;;;;;27.50;93.00;;;;;;5062917;27;20052;-47
2022/10/10 04:33:59;;;;;;;;;;;27.50;93.00;;;;;;5063711;28;19912;-43
2022/10/10 04:36:26;;;;;;;;;;;27.50;93.00;;;;;;5063606;28;19944;-47
2022/10/10 04:38:52;;;;;;;;;;;27.50;93.10;;;;;;5063402;28;20173;-45
2022/10/10 04:41:18;;;;;;;;;;;27.50;93.00;;;;;;5063222;28;20211;-46
2022/10/10 04:43:44;;;;;;;;;;;27.50;93.10;;;;;;5062331;28;19913;-44
2022/10/10 04:46:10;;;;;;;;;;;27.50;93.10;;;;;;5043566;28;19908;-54
2022/10/10 04:48:36;;;;;;;;;;;27.50;93.10;;;;;;5025881;28;20065;-48
2022/10/10 04:51:03;;;;;;;;;;;27.50;93.20;;;;;;5043252;28;24127;-46
2022/10/10 04:53:29;;;;;;;;;;;27.50;93.10;;;;;;5043119;28;19948;-45
2022/10/10 04:55:55;;;;;;;;;;;27.50;93.10;;;;;;5043210;28;19901;-48
2022/10/10 04:58:21;;;;;;;;;;;27.50;93.10;;;;;;5043347;28;20345;-44
2022/10/10 05:00:51;;;;;;;;;;;27.50;93.10;;;;;;5042895;28;19909;-45
2022/10/10 05:03:18;;;;;;;;;;;27.50;93.00;;;;;;5050886;28;19950;-53
2022/10/10 05:05:44;;;;;;;;;;;27.50;93.00;;;;;;5043299;28;19949;-50
2022/10/10 05:08:10;;;;;;;;;;;27.50;93.00;;;;;;5042820;28;19942;-53
2022/10/10 05:10:37;;;;;;;;;;;27.50;93.00;;;;;;5042954;28;20094;-47
2022/10/10 05:13:05;;;;;;;;;;;27.50;92.90;;;;;;5043133;28;20094;-55
2022/10/10 05:15:34;;;;;;;;;;;27.50;93.00;;;;;;5042655;28;20091;-50
2022/10/10 05:18:00;;;;;;;;;;;27.50;92.90;;;;;;5042652;28;20044;-47
2022/10/10 05:20:26;;;;;;;;;;;27.50;92.90;;;;;;5042668;28;20046;-50
2022/10/10 05:22:53;;;;;;;;;;;27.40;92.80;;;;;;5042562;28;19972;-46
2022/10/10 05:25:19;;;;;;;;;;;27.50;92.90;;;;;;5042562;28;20086;-49
2022/10/10 05:27:45;;;;;;;;;;;27.50;92.80;;;;;;5042439;28;19916;-47
2022/10/10 05:30:11;;;;;;;;;;;27.40;92.70;;;;;;5041064;28;19913;-50
2022/10/10 05:32:38;;;;;;;;;;;27.30;92.70;;;;;;5042495;28;19912;-47
2022/10/10 05:35:04;;;;;;;;;;;27.30;92.70;;;;;;5042394;28;19912;-48
2022/10/10 05:37:31;;;;;;;;;;;27.30;92.70;;;;;;5042330;28;19911;-47
2022/10/10 05:39:57;;;;;;;;;;;27.30;92.60;;;;;;5042977;28;19909;-47
2022/10/10 05:42:23;;;;;;;;;;;27.30;92.50;;;;;;5063566;27;20189;-45
2022/10/10 05:44:49;;;;;;;;;;;27.30;92.50;;;;;;5050032;28;20010;-47
2022/10/10 05:47:16;;;;;;;;;;;27.20;92.30;;;;;;5042020;28;19909;-47
2022/10/10 05:49:42;;;;;;;;;;;27.10;92.30;;;;;;5062084;28;19915;-43
2022/10/10 05:52:08;;;;;;;;;;;27.10;92.30;;;;;;5062072;28;24061;-47
2022/10/10 05:54:34;;;;;;;;;;;27.00;92.40;;;;;;5062692;28;19931;-48
2022/10/10 05:57:00;;;;;;;;;;;27.00;92.40;;;;;;5051028;28;20177;-45
2022/10/10 05:59:30;;;;;;;;;;;27.00;92.40;;;;;;5042395;28;19913;-46
2022/10/10 06:01:56;;;;;;;;;;;27.00;92.40;;;;;;5041672;28;19916;-47
2022/10/10 06:04:22;;;;;;;;;;;27.00;92.30;;;;;;5042181;28;19909;-48
2022/10/10 06:06:49;;;;;;;;;;;27.00;92.30;;;;;;5042188;28;20089;-55
2022/10/10 06:09:15;;;;;;;;;;;26.90;92.30;;;;;;5041904;28;24059;-44
2022/10/10 06:11:41;;;;;;;;;;;26.90;92.30;;;;;;5041659;28;19908;-46
2022/10/10 06:14:08;;;;;;;;;;;26.90;92.30;;;;;;5041875;28;19916;-45
2022/10/10 06:16:35;;;;;;;;;;;26.90;92.30;;;;;;5041817;28;20205;-43
2022/10/10 06:19:03;;;;;;;;;;;26.90;92.30;;;;;;5043460;28;24080;-49
2022/10/10 06:21:29;;;;;;;;;;;26.90;92.30;;;;;;5041536;28;19907;-44
2022/10/10 06:23:55;;;;;;;;;;;26.90;92.40;;;;;;5041982;28;19972;-47
2022/10/10 06:26:21;;;;;;;;;;;26.90;92.40;;;;;;5041313;28;19905;-50
2022/10/10 06:28:49;;;;;;;;;;;26.90;92.40;;;;;;5041766;28;19931;-44
2022/10/10 06:31:16;;;;;;;;;;;26.90;92.40;;;;;;5041157;28;19913;-43
2022/10/10 06:33:44;;;;;;;;;;;26.80;92.40;;;;;;5041564;28;20030;-47
2022/10/10 06:36:11;;;;;;;;;;;26.90;92.50;;;;;;5041187;28;19908;-45
2022/10/10 06:38:38;;;;;;;;;;;26.90;92.40;;;;;;5041232;28;19909;-49
2022/10/10 06:41:05;;;;;;;;;;;26.90;92.50;;;;;;5041523;28;19921;-43
2022/10/10 06:43:31;;;;;;;;;;;26.80;92.50;;;;;;5040966;28;19981;-44
2022/10/10 06:45:58;;;;;;;;;;;26.80;92.50;;;;;;5041409;28;20071;-46
2022/10/10 06:48:24;;;;;;;;;;;26.90;92.50;;;;;;5041290;28;20308;-44
2022/10/10 06:51:01;;;;;;;;;;;26.90;92.40;;;;;;5041338;28;19905;-48
2022/10/10 06:53:27;;;;;;;;;;;26.90;92.40;;;;;;5040892;28;19942;-51
2022/10/10 06:55:54;;;;;;;;;;;26.90;92.50;;;;;;5041199;28;19963;-42
2022/10/10 06:58:21;;;;;;;;;;;26.90;92.20;;;;;;5041164;28;19905;-42
2022/10/10 07:00:48;;;;;;;;;;;26.90;92.20;;;;;;5041017;28;19944;-45
2022/10/10 07:03:14;;;;;;;;;;;26.90;92.20;;;;;;5041173;28;19909;-44
2022/10/10 07:05:40;;;;;;;;;;;26.90;92.20;;;;;;5041017;28;19923;-45
2022/10/10 07:08:08;;;;;;;;;;;26.90;92.30;;;;;;5040832;28;19909;-46
2022/10/10 07:10:34;;;;;;;;;;;26.90;92.30;;;;;;5040760;28;20130;-49
2022/10/10 07:13:00;;;;;;;;;;;26.90;92.10;;;;;;5040558;28;19909;-47
2022/10/10 07:15:26;;;;;;;;;;;26.90;92.10;;;;;;5040796;28;19905;-44
2022/10/10 07:17:56;;;;;;;;;;;26.80;92.00;;;;;;5040744;28;19905;-45
2022/10/10 07:20:22;;;;;;;;;;;26.90;92.10;;;;;;5040635;28;20288;-44
2022/10/10 07:22:48;;;;;;;;;;;26.80;92.10;;;;;;5040696;28;19901;-44
2022/10/10 07:25:15;;;;;;;;;;;26.80;92.10;;;;;;5040774;28;19912;-48
2022/10/10 07:27:41;;;;;;;;;;;26.80;92.10;;;;;;5040231;28;19947;-43
2022/10/10 07:30:08;;;;;;;;;;;26.80;92.00;;;;;;5041096;28;19952;-43
2022/10/10 07:32:34;;;;;;;;;;;26.80;92.00;;;;;;5040531;28;19905;-48
2022/10/10 07:35:01;;;;;;;;;;;26.80;92.00;;;;;;5040577;28;19909;-46
2022/10/10 07:37:27;;;;;;;;;;;26.80;92.00;;;;;;5040453;28;19937;-48
2022/10/10 07:39:53;;;;;;;;;;;26.80;92.00;;;;;;5040081;28;24071;-45
2022/10/10 07:42:19;;;;;;;;;;;26.80;92.00;;;;;;5040487;28;20096;-45
2022/10/10 07:44:45;;;;;;;;;;;26.80;92.00;;;;;;5040948;28;19938;-43
2022/10/10 07:47:11;;;;;;;;;;;26.80;91.90;;;;;;5040076;28;20205;-45
2022/10/10 07:49:38;;;;;;;;;;;26.70;92.00;;;;;;5040940;28;19906;-43
2022/10/10 07:52:04;;;;;;;;;;;26.70;91.90;;;;;;5040945;28;19905;-42
2022/10/10 07:54:30;;;;;;;;;;;26.80;92.00;;;;;;5044244;28;19909;-42
2022/10/10 07:56:56;;;;;;;;;;;26.80;92.00;;;;;;5043912;28;19942;-47
2022/10/10 07:59:23;;;;;;;;;;;26.70;92.00;;;;;;5044044;28;24081;-42
2022/10/10 08:01:49;;;;;;;;;;;26.80;92.00;;;;;;5043698;28;19918;-42
2022/10/10 08:04:16;;;;;;;;;;;26.80;91.90;;;;;;5043962;28;19984;-45
2022/10/10 08:06:42;;;;;;;;;;;26.80;92.00;;;;;;5043659;28;19924;-42
2022/10/10 08:09:08;;;;;;;;;;;26.80;92.00;;;;;;5054960;28;19909;-44
2022/10/10 08:11:34;;;;;;;;;;;26.80;92.10;;;;;;5055806;28;25107;-42
2022/10/10 08:14:00;;;;;;;;;;;26.90;91.90;;;;;;5063788;28;20195;-44
2022/10/10 08:16:26;;;;;;;;;;;26.80;91.80;;;;;;5063466;28;19905;-43
2022/10/10 08:18:53;;;;;;;;;;;26.90;91.90;;;;;;5063415;28;19904;-42
2022/10/10 08:21:19;;;;;;;;;;;26.90;91.90;;;;;;5044889;28;19944;-43
2022/10/10 08:23:45;;;;;;;;;;;26.90;91.90;;;;;;5043658;28;19954;-45
2022/10/10 08:26:12;;;;;;;;;;;26.80;91.90;;;;;;5043367;28;19934;-42
2022/10/10 08:28:38;;;;;;;;;;;26.90;91.90;;;;;;5043328;28;19916;-41
2022/10/10 08:31:05;;;;;;;;;;;26.90;92.20;;;;;;5043591;28;20387;-46
2022/10/10 08:33:32;;;;;;;;;;;26.90;92.00;;;;;;5043654;28;19909;-42
2022/10/10 08:36:00;;;;;;;;;;;26.80;91.90;;;;;;5043462;28;19901;-41
2022/10/10 08:38:26;;;;;;;;;;;26.90;92.00;;;;;;5043659;28;19919;-42
2022/10/10 08:40:53;;;;;;;;;;;26.90;92.00;;;;;;5042998;28;20149;-45
2022/10/10 08:43:29;;;;;;;;;;;26.90;92.00;;;;;;5043430;28;19906;-45
2022/10/10 08:45:56;;;;;;;;;;;26.90;91.90;;;;;;5043229;28;19936;-41
2022/10/10 08:48:23;;;;;;;;;;;26.80;91.90;;;;;;5043055;28;19916;-41
2022/10/10 08:50:56;;;;;;;;;;;26.80;92.00;;;;;;5042963;28;19986;-45
2022/10/10 08:53:22;;;;;;;;;;;26.80;92.00;;;;;;5042840;28;19985;-50
2022/10/10 08:55:48;;;;;;;;;;;26.80;92.00;;;;;;5043840;28;19980;-44
2022/10/10 08:58:50;;;;;;;;;;;26.80;92.00;;;;;;5043568;28;19909;-41
2022/10/10 09:01:19;;;;;;;;;;;26.80;92.00;;;;;;5064679;28;19947;-43
2022/10/10 09:03:47;;;;;;;;;;;26.80;92.10;;;;;;5045557;28;19915;-44
2022/10/10 09:06:19;;;;;;;;;;;26.80;92.10;;;;;;5042793;28;19964;-43
2022/10/10 09:08:55;;;;;;;;;;;26.80;92.10;;;;;;5099874;27;24129;-41
2022/10/10 09:11:53;;;;;;;;;;;26.80;92.10;;;;;;5140273;27;19902;-42
2022/10/10 09:14:37;;;;;;;;;;;26.80;92.10;;;;;;5111193;27;19987;-45
2022/10/10 09:17:30;;;;;;;;;;;26.80;92.10;;;;;;5168106;27;20003;-42
2022/10/10 09:20:08;;;;;;;;;;;26.80;92.10;;;;;;5168150;27;20027;-45
2022/10/10 09:22:45;;;;;;;;;;;26.80;92.10;;;;;;5167970;27;19909;-43
2022/10/10 09:25:32;;;;;;;;;;;26.80;92.10;;;;;;5167750;27;19913;-42
2022/10/10 09:28:05;;;;;;;;;;;26.80;92.10;;;;;;5168014;27;19911;-46
2022/10/10 09:30:34;;;;;;;;;;;26.80;92.10;;;;;;5167577;27;19926;-42
2022/10/10 09:33:18;;;;;;;;;;;26.80;92.10;;;;;;5168126;27;19914;-41
2022/10/10 09:35:45;;;;;;;;;;;26.80;92.10;;;;;;5167556;27;19902;-45
2022/10/10 09:38:11;;;;;;;;;;;26.80;92.30;;;;;;5167938;27;19946;-43
2022/10/10 09:40:42;;;;;;;;;;;26.80;92.00;;;;;;5167547;27;19962;-42
2022/10/10 09:43:17;;;;;;;;;;;26.80;92.10;;;;;;5167892;27;19922;-46
2022/10/10 09:45:46;;;;;;;;;;;26.70;92.00;;;;;;5167548;27;19966;-41
2022/10/10 09:48:12;;;;;;;;;;;26.80;92.10;;;;;;5167379;27;19981;-43
2022/10/10 09:50:39;;;;;;;;;;;26.70;92.00;;;;;;5167135;27;24067;-42
2022/10/10 09:53:05;;;;;;;;;;;26.70;92.00;;;;;;5167354;27;24090;-43
2022/10/10 09:55:36;;;;;;;;;;;26.70;92.10;;;;;;5167350;27;19906;-44
2022/10/10 09:58:09;;;;;;;;;;;26.70;92.00;;;;;;5167530;27;19903;-44
2022/10/10 10:00:36;;;;;;;;;;;26.70;92.00;;;;;;5167274;27;19926;-44
2022/10/10 10:03:03;;;;;;;;;;;26.70;92.00;;;;;;5167768;27;19914;-43
2022/10/10 10:05:30;;;;;;;;;;;26.70;92.10;;;;;;5167161;27;20214;-44
2022/10/10 10:07:57;;;;;;;;;;;26.70;92.10;;;;;;5123251;27;19916;-46
2022/10/10 10:10:25;;;;;;;;;;;26.70;92.10;;;;;;5061685;28;19945;-43
2022/10/10 10:12:52;;;;;;;;;;;26.70;92.10;;;;;;5057491;28;20071;-42
2022/10/10 10:15:27;;;;;;;;;;;26.60;92.10;;;;;;5051813;28;19920;-42
2022/10/10 10:18:11;;;;;;;;;;;26.60;92.10;;;;;;5041995;28;24104;-42
2022/10/10 10:20:42;;;;;;;;;;;26.60;92.10;;;;;;5052835;27;19916;-42
2022/10/10 10:23:21;;;;;;;;;;;26.60;92.10;;;;;;5042044;28;19941;-44
2022/10/10 10:25:56;;;;;;;;;;;26.60;92.20;;;;;;5061650;28;25135;-43
2022/10/10 10:28:22;;;;;;;;;;;26.60;92.20;;;;;;5061316;28;24060;-47
2022/10/10 10:30:48;;;;;;;;;;;26.60;92.20;;;;;;5043285;28;19950;-48
2022/10/10 10:33:23;;;;;;;;;;;26.60;92.20;;;;;;5041849;28;20074;-47
2022/10/10 10:35:58;;;;;;;;;;;26.60;92.20;;;;;;5046621;28;24102;-43
2022/10/10 10:38:42;;;;;;;;;;;26.60;92.20;;;;;;5061977;28;20170;-45
2022/10/10 10:41:26;;;;;;;;;;;26.60;92.20;;;;;;5061581;28;19930;-42
2022/10/10 10:44:11;;;;;;;;;;;26.60;92.20;;;;;;5061673;28;20015;-52
2022/10/10 10:46:56;;;;;;;;;;;26.60;92.50;;;;;;5056597;27;19911;-43
2022/10/10 10:49:28;;;;;;;;;;;26.60;92.30;;;;;;5163379;27;19928;-47
2022/10/10 10:51:54;;;;;;;;;;;26.60;92.30;;;;;;5090222;27;19911;-52
2022/10/10 10:54:23;;;;;;;;;;;26.50;92.30;;;;;;5062827;27;24078;-51
2022/10/10 10:57:15;;;;;;;;;;;26.50;92.40;;;;;;5135690;27;19985;-47
2022/10/10 10:59:58;;;;;;;;;;;26.40;92.30;;;;;;5117838;27;20257;-44
2022/10/10 11:02:38;;;;;;;;;;;26.40;92.40;;;;;;5040135;28;19916;-49
2022/10/10 11:05:04;;;;;;;;;;;26.30;92.40;;;;;;5039867;28;25123;-49
2022/10/10 11:07:48;;;;;;;;;;;26.40;92.50;;;;;;5041458;28;19969;-49
2022/10/10 11:10:26;;;;;;;;;;;26.30;92.60;;;;;;5045001;28;24078;-56
2022/10/10 11:12:52;;;;;;;;;;;26.30;92.60;;;;;;5041667;28;19972;-49
2022/10/10 11:15:45;;;;;;;;;;;26.30;92.60;;;;;;5030339;28;20061;-50
2022/10/10 11:18:13;;;;;;;;;;;26.30;92.60;;;;;;5042276;28;19909;-48
2022/10/10 11:20:59;;;;;;;;;;;26.30;92.70;;;;;;5039469;28;19909;-50
2022/10/10 11:23:34;;;;;;;;;;;26.30;92.60;;;;;;5039402;28;25065;-53
2022/10/10 11:26:10;;;;;;;;;;;26.30;92.60;;;;;;5039125;28;19905;-47
2022/10/10 11:28:39;;;;;;;;;;;26.30;92.70;;;;;;5039043;28;24070;-48
2022/10/10 11:31:09;;;;;;;;;;;26.30;92.70;;;;;;5038680;28;24074;-46
2022/10/10 11:33:41;;;;;;;;;;;26.40;92.70;;;;;;5039310;28;20134;-47
2022/10/10 11:36:08;;;;;;;;;;;26.40;92.60;;;;;;5041075;28;19940;-48
2022/10/10 11:38:37;;;;;;;;;;;26.40;92.60;;;;;;5040574;28;19909;-45
2022/10/10 11:41:03;;;;;;;;;;;26.40;92.60;;;;;;5039131;28;19912;-46
2022/10/10 11:43:30;;;;;;;;;;;26.40;92.60;;;;;;5039126;28;19909;-51
2022/10/10 11:46:02;;;;;;;;;;;26.50;92.60;;;;;;5038901;28;20106;-51
2022/10/10 11:48:28;;;;;;;;;;;26.50;92.60;;;;;;5040518;28;25090;-43
2022/10/10 11:51:05;;;;;;;;;;;26.50;92.80;;;;;;5040533;28;19904;-46
2022/10/10 11:53:31;;;;;;;;;;;26.50;92.60;;;;;;5041092;28;19909;-48
2022/10/10 11:56:16;;;;;;;;;;;26.60;92.60;;;;;;5022946;28;19912;-51
2022/10/10 11:58:45;;;;;;;;;;;26.60;92.60;;;;;;5040501;28;19909;-43
2022/10/10 12:01:20;;;;;;;;;;;26.60;92.70;;;;;;5040444;28;19909;-53
2022/10/10 12:03:49;;;;;;;;;;;26.60;92.70;;;;;;5040975;28;19972;-47
2022/10/10 12:06:32;;;;;;;;;;;26.60;92.70;;;;;;5040689;28;19912;-44
2022/10/10 12:09:02;;;;;;;;;;;26.70;92.70;;;;;;5040529;28;20080;-47
2022/10/10 12:11:40;;;;;;;;;;;26.70;92.60;;;;;;5040395;28;20145;-50
2022/10/10 12:14:13;;;;;;;;;;;26.80;92.50;;;;;;5040700;28;20089;-46
2022/10/10 12:16:39;;;;;;;;;;;26.80;92.40;;;;;;5022518;28;24076;-47
2022/10/10 12:19:07;;;;;;;;;;;26.90;92.40;;;;;;5040553;28;24070;-48
2022/10/10 12:21:51;;;;;;;;;;;26.90;92.30;;;;;;5040229;28;20212;-50
2022/10/10 12:24:17;;;;;;;;;;;26.90;92.30;;;;;;5040695;28;20186;-47
2022/10/10 12:26:52;;;;;;;;;;;27.00;92.30;;;;;;5040283;28;20208;-49
2022/10/10 12:29:37;;;;;;;;;;;27.00;92.20;;;;;;5040003;28;24065;-52
2022/10/10 12:32:22;;;;;;;;;;;27.00;92.20;;;;;;5039795;28;19917;-46
2022/10/10 12:34:48;;;;;;;;;;;27.00;92.20;;;;;;5040317;28;24086;-44
2022/10/10 12:37:26;;;;;;;;;;;27.10;92.20;;;;;;5040163;28;20041;-45
2022/10/10 12:40:00;;;;;;;;;;;27.10;92.10;;;;;;5043317;28;19981;-47
2022/10/10 12:42:33;;;;;;;;;;;27.10;92.10;;;;;;5043092;28;19905;-43
2022/10/10 12:45:00;;;;;;;;;;;27.20;92.10;;;;;;5043271;28;19909;-47
2022/10/10 12:47:29;;;;;;;;;;;27.20;92.00;;;;;;5043113;28;19916;-45
2022/10/10 12:49:59;;;;;;;;;;;27.20;92.00;;;;;;5043799;28;20326;-46
2022/10/10 12:52:45;;;;;;;;;;;27.30;92.00;;;;;;5043096;28;20102;-49
2022/10/10 12:55:21;;;;;;;;;;;27.30;91.90;;;;;;5042944;28;20077;-50
2022/10/10 12:57:48;;;;;;;;;;;27.30;91.90;;;;;;5042874;28;20193;-48
2022/10/10 13:00:21;;;;;;;;;;;27.30;92.00;;;;;;5042954;28;19916;-49
2022/10/10 13:02:52;;;;;;;;;;;27.30;92.00;;;;;;5043113;28;20237;-47
2022/10/10 13:05:23;;;;;;;;;;;27.30;92.00;;;;;;5042898;28;20131;-49
2022/10/10 13:07:51;;;;;;;;;;;27.40;92.10;;;;;;5042628;28;20106;-47
2022/10/10 13:10:22;;;;;;;;;;;27.40;92.20;;;;;;5042511;28;20192;-49
2022/10/10 13:12:59;;;;;;;;;;;27.40;92.10;;;;;;5043112;28;19923;-46
2022/10/10 13:15:25;;;;;;;;;;;27.40;92.10;;;;;;5042417;28;24083;-52
2022/10/10 13:17:51;;;;;;;;;;;27.40;92.10;;;;;;5042907;28;20209;-46
2022/10/10 13:20:26;;;;;;;;;;;27.50;92.00;;;;;;5042725;28;24072;-46
2022/10/10 13:22:53;;;;;;;;;;;27.50;92.00;;;;;;5042456;28;19904;-50
2022/10/10 13:25:19;;;;;;;;;;;27.50;91.90;;;;;;5042534;28;20031;-46
2022/10/10 13:27:45;;;;;;;;;;;27.50;91.80;;;;;;5042531;28;20180;-52
2022/10/10 13:30:21;;;;;;;;;;;27.50;91.90;;;;;;5041944;28;24087;-49
2022/10/10 13:32:48;;;;;;;;;;;27.50;91.90;;;;;;5042368;28;24089;-46
2022/10/10 13:35:20;;;;;;;;;;;27.60;92.10;;;;;;5042206;28;19912;-45
2022/10/10 13:37:49;;;;;;;;;;;27.60;91.60;;;;;;5042289;28;19912;-47
2022/10/10 13:40:16;;;;;;;;;;;27.60;91.70;;;;;;5042133;28;24099;-45
2022/10/10 13:42:43;;;;;;;;;;;27.60;91.90;;;;;;5042268;28;19905;-50
2022/10/10 13:45:32;;;;;;;;;;;27.60;91.60;;;;;;5041960;28;24099;-46
2022/10/10 13:48:00;;;;;;;;;;;27.60;91.60;;;;;;5051578;28;24088;-45
2022/10/10 13:50:42;;;;;;;;;;;27.70;91.60;;;;;;5040690;28;24072;-44
2022/10/10 13:53:40;;;;;;;;;;;27.70;91.60;;;;;;5042060;28;19916;-46
2022/10/10 13:56:07;;;;;;;;;;;27.70;91.60;;;;;;5053959;28;19905;-47
2022/10/10 13:58:38;;;;;;;;;;;27.70;91.60;;;;;;5042145;28;24064;-43
2022/10/10 14:01:04;;;;;;;;;;;27.80;91.40;;;;;;5110185;28;25059;-49
2022/10/10 14:03:32;;;;;;;;;;;27.80;91.40;;;;;;5041712;28;24084;-44
2022/10/10 14:05:58;;;;;;;;;;;27.80;91.10;;;;;;5041697;28;20181;-44
2022/10/10 14:08:26;;;;;;;;;;;27.80;91.10;;;;;;5041766;28;19916;-49
2022/10/10 14:11:00;;;;;;;;;;;27.80;91.10;;;;;;5041629;28;24067;-48
2022/10/10 14:13:27;;;;;;;;;;;27.80;90.60;;;;;;5041276;28;19909;-44
2022/10/10 14:15:54;;;;;;;;;;;27.80;90.80;;;;;;5041300;28;24149;-47
2022/10/10 14:18:21;;;;;;;;;;;27.80;90.90;;;;;;5041667;28;19968;-48
2022/10/10 14:20:48;;;;;;;;;;;27.90;90.90;;;;;;5041452;28;19909;-47
2022/10/10 14:23:15;;;;;;;;;;;27.90;91.00;;;;;;5041725;28;20210;-44
2022/10/10 14:25:41;;;;;;;;;;;27.90;90.90;;;;;;5041395;28;20036;-43
2022/10/10 14:28:15;;;;;;;;;;;27.90;90.60;;;;;;5041283;28;24083;-49
2022/10/10 14:30:41;;;;;;;;;;;28.00;90.60;;;;;;5041300;28;25062;-47